Terminal Aerodrome Forecast
Issued by NWS Shreveport, LA

Home | Current Version | Previous Version | Text Only | Print | Product List | Glossary On
Versions: 1 2 3 4 5 6 7 8 9 10 11 12 13 14 15
715
FTUS44 KSHV 232342
TAFTXK
TAF
KTXK 232342Z 2400/2424 05006KT P6SM SCT040 SCT150 BKN250
     FM240600 06003KT P6SM BKN030 BKN250
     FM241500 07007KT P6SM SCT035 SCT150 BKN250
     FM242100 06008KT P6SM SCT040 BKN250=

USA.gov is the U.S. government's official web portal to all federal, state and local government web resources and services.